createdAt,value
2018-01-24T00:01:07.384Z,99.90
2018-01-24T00:03:35.859Z,99.90
2018-01-24T00:06:10.096Z,99.90
2018-01-24T00:08:37.719Z,99.90
2018-01-24T00:11:05.332Z,99.90
2018-01-24T00:13:34.278Z,99.90
2018-01-24T00:16:03.479Z,99.90
2018-01-24T00:18:31.191Z,99.90
2018-01-24T00:20:58.745Z,99.90
2018-01-24T00:23:26.362Z,99.90
2018-01-24T00:25:54.720Z,99.90
2018-01-24T00:28:22.562Z,99.90
2018-01-24T00:30:50.272Z,99.90
2018-01-24T00:33:17.821Z,99.90
2018-01-24T00:35:45.476Z,99.90
2018-01-24T00:38:30.155Z,99.90
2018-01-24T00:40:59.524Z,99.90
2018-01-24T00:43:27.165Z,99.90
2018-01-24T00:45:55.107Z,99.90
2018-01-24T00:48:23.836Z,99.90
2018-01-24T00:53:47.597Z,99.90
2018-01-24T00:56:16.456Z,99.90
2018-01-24T00:58:45.057Z,99.90
2018-01-24T01:01:12.680Z,99.90
2018-01-24T01:03:40.430Z,99.90
2018-01-24T01:06:07.963Z,99.90
2018-01-24T01:08:36.629Z,99.90
2018-01-24T01:11:04.984Z,99.90
2018-01-24T01:13:40.314Z,99.90
2018-01-24T01:16:09.512Z,99.90
2018-01-24T01:18:38.914Z,99.90
2018-01-24T01:21:06.844Z,99.90
2018-01-24T01:23:34.765Z,99.90
2018-01-24T01:26:02.508Z,99.90
2018-01-24T01:28:30.185Z,99.90
2018-01-24T01:31:00.828Z,99.90
2018-01-24T01:36:02.381Z,99.90
2018-01-24T01:38:29.951Z,99.90
2018-01-24T01:40:57.602Z,99.90
2018-01-24T01:43:25.253Z,99.90
2018-01-24T01:45:52.780Z,99.90
2018-01-24T01:48:37.884Z,99.90
2018-01-24T01:51:05.378Z,99.90
2018-01-24T01:53:32.991Z,99.90
2018-01-24T01:56:00.691Z,99.90
2018-01-24T01:58:28.235Z,99.90
2018-01-24T02:00:55.964Z,99.90
2018-01-24T02:03:23.483Z,99.90
2018-01-24T02:05:51.055Z,99.90
2018-01-24T02:08:18.560Z,99.90
2018-01-24T02:10:46.043Z,99.90
2018-01-24T02:13:14.301Z,99.90
2018-01-24T02:15:41.779Z,99.90
2018-01-24T02:18:09.263Z,99.90
2018-01-24T02:20:36.781Z,99.90
2018-01-24T02:23:04.299Z,99.90
2018-01-24T02:25:31.930Z,99.90
2018-01-24T02:27:59.407Z,99.90
2018-01-24T02:30:26.867Z,99.90
2018-01-24T02:32:54.335Z,99.90
2018-01-24T02:35:21.862Z,99.90
2018-01-24T02:37:49.451Z,99.90
2018-01-24T02:40:16.975Z,99.90
2018-01-24T02:42:44.445Z,99.90
2018-01-24T02:45:12.018Z,99.90
2018-01-24T02:47:39.530Z,99.90
2018-01-24T02:50:07.096Z,99.90
2018-01-24T02:52:34.666Z,99.90
2018-01-24T02:55:09.427Z,99.90
2018-01-24T02:57:37.047Z,99.90
2018-01-24T03:00:05.498Z,99.90
2018-01-24T03:02:33.142Z,99.90
2018-01-24T03:05:05.411Z,99.90
2018-01-24T03:07:32.922Z,99.90
2018-01-24T03:10:00.530Z,99.90
2018-01-24T03:12:28.107Z,99.90
2018-01-24T03:14:56.343Z,99.90
2018-01-24T03:17:23.945Z,99.90
2018-01-24T03:19:51.442Z,99.90
2018-01-24T03:22:18.948Z,99.90
2018-01-24T03:24:46.513Z,99.90
2018-01-24T03:27:14.179Z,99.90
2018-01-24T03:29:43.588Z,99.90
2018-01-24T03:32:11.356Z,99.90
2018-01-24T03:34:39.768Z,99.90
2018-01-24T03:37:09.997Z,99.90
2018-01-24T03:39:37.684Z,99.90
2018-01-24T03:42:05.196Z,99.90
2018-01-24T03:44:32.760Z,99.90
2018-01-24T03:47:00.333Z,99.90
2018-01-24T03:49:29.451Z,99.90
2018-01-24T03:51:57.103Z,99.90
2018-01-24T03:54:27.263Z,99.90
2018-01-24T03:56:56.139Z,99.90
2018-01-24T03:59:23.738Z,99.90
2018-01-24T04:01:52.104Z,99.90
2018-01-24T04:04:20.342Z,99.90
2018-01-24T04:06:49.893Z,99.90
2018-01-24T04:09:17.482Z,99.90
2018-01-24T04:11:45.038Z,99.90
2018-01-24T04:14:12.686Z,99.90
2018-01-24T04:19:24.185Z,99.90
2018-01-24T04:21:54.160Z,99.90
2018-01-24T04:24:21.698Z,99.90
2018-01-24T04:29:39.795Z,99.90
2018-01-24T04:32:10.983Z,99.90
2018-01-24T04:34:40.890Z,99.90
2018-01-24T04:37:08.701Z,99.90
2018-01-24T04:39:41.116Z,99.90
2018-01-24T04:42:10.373Z,99.90
2018-01-24T04:44:37.982Z,99.90
2018-01-24T04:47:05.529Z,99.90
2018-01-24T04:49:35.618Z,99.90
2018-01-24T04:52:03.263Z,99.90
2018-01-24T04:54:31.142Z,99.90
2018-01-24T04:56:59.637Z,99.90
2018-01-24T04:59:28.590Z,99.90
2018-01-24T05:01:56.478Z,99.90
2018-01-24T05:04:28.985Z,99.90
2018-01-24T05:06:56.609Z,99.90
2018-01-24T05:09:34.992Z,99.90
2018-01-24T05:12:06.309Z,99.90
2018-01-24T05:14:35.621Z,99.90
2018-01-24T05:17:07.169Z,99.90
2018-01-24T05:19:43.398Z,99.90
2018-01-24T05:22:21.564Z,99.90
2018-01-24T05:24:49.267Z,99.90
2018-01-24T05:40:23.555Z,99.90
2018-01-24T05:42:51.115Z,99.90
2018-01-24T05:45:18.768Z,99.90
2018-01-24T06:00:58.904Z,99.90
2018-01-24T06:03:27.435Z,99.90
2018-01-24T06:05:55.055Z,99.90
2018-01-24T06:08:22.653Z,99.90
2018-01-24T06:10:50.307Z,99.90
2018-01-24T06:13:17.992Z,99.90
2018-01-24T06:15:45.583Z,99.90
2018-01-24T06:18:13.876Z,99.90
2018-01-24T06:20:41.387Z,99.90
2018-01-24T06:23:08.893Z,99.90
2018-01-24T06:25:36.378Z,99.90
2018-01-24T06:28:03.842Z,99.90
2018-01-24T06:30:34.033Z,99.90
2018-01-24T06:33:01.529Z,99.90
2018-01-24T06:35:28.990Z,99.90
2018-01-24T06:37:56.578Z,99.90
2018-01-24T06:40:24.331Z,99.90
2018-01-24T06:42:52.802Z,99.90
2018-01-24T06:45:20.487Z,99.90
2018-01-24T06:47:47.977Z,99.90
2018-01-24T06:50:15.531Z,99.90
2018-01-24T06:52:43.070Z,99.90
2018-01-24T06:55:20.942Z,99.90
2018-01-24T06:57:52.125Z,99.90
2018-01-24T07:00:22.502Z,99.90
2018-01-24T07:02:50.749Z,99.90
2018-01-24T07:05:31.536Z,99.90
2018-01-24T07:07:59.149Z,99.90
2018-01-24T07:10:26.663Z,99.90
2018-01-24T07:13:06.773Z,99.90
2018-01-24T07:15:35.247Z,99.90
2018-01-24T07:18:02.759Z,99.90
2018-01-24T07:20:31.692Z,99.90
2018-01-24T07:23:00.233Z,99.90
2018-01-24T07:32:14.064Z,99.90
2018-01-24T07:34:49.664Z,99.90
2018-01-24T07:40:01.512Z,99.90
2018-01-24T07:42:29.009Z,99.90
2018-01-24T07:44:57.249Z,99.90
2018-01-24T07:47:24.721Z,99.90
2018-01-24T07:49:52.187Z,99.90
2018-01-24T07:52:19.658Z,99.90
2018-01-24T07:54:58.489Z,99.90
2018-01-24T07:57:31.951Z,99.90
2018-01-24T08:00:00.267Z,99.90
2018-01-24T08:02:28.076Z,99.90
2018-01-24T08:04:55.532Z,99.90
2018-01-24T08:07:22.998Z,99.90
2018-01-24T08:09:50.469Z,99.90
2018-01-24T08:12:17.933Z,99.90
2018-01-24T08:14:45.863Z,99.90
2018-01-24T08:17:13.321Z,99.90
2018-01-24T08:19:40.782Z,99.90
2018-01-24T08:22:08.267Z,99.90
2018-01-24T08:24:35.717Z,99.90
2018-01-24T08:27:03.532Z,99.90
2018-01-24T08:29:30.983Z,99.90
2018-01-24T08:31:58.501Z,99.90
2018-01-24T08:34:25.958Z,99.90
2018-01-24T08:36:53.451Z,99.90
2018-01-24T08:39:21.679Z,99.90
2018-01-24T08:41:49.141Z,99.90
2018-01-24T08:44:16.604Z,99.90
2018-01-24T08:46:44.088Z,99.90
2018-01-24T08:49:11.587Z,99.90
2018-01-24T08:51:39.061Z,99.90
2018-01-24T08:54:06.541Z,99.90
2018-01-24T08:56:33.984Z,99.90
2018-01-24T08:59:01.483Z,99.90
2018-01-24T09:01:47.086Z,99.90
2018-01-24T09:04:32.148Z,99.90
2018-01-24T09:07:18.960Z,99.90
2018-01-24T09:10:03.873Z,99.90
2018-01-24T09:12:48.853Z,99.90
2018-01-24T09:15:33.912Z,99.90
2018-01-24T09:18:18.899Z,99.90
2018-01-24T09:21:03.870Z,99.90
2018-01-24T09:23:49.200Z,99.90
2018-01-24T09:26:16.694Z,99.90
2018-01-24T09:28:44.165Z,99.90
2018-01-24T09:31:11.695Z,99.90
2018-01-24T09:33:39.176Z,99.90
2018-01-24T09:36:06.639Z,99.90
2018-01-24T09:38:34.118Z,99.90
2018-01-24T09:41:01.590Z,99.90
2018-01-24T09:43:29.062Z,99.90
2018-01-24T09:45:56.534Z,99.90
2018-01-24T09:48:24.084Z,99.90
2018-01-24T09:50:51.538Z,99.90
2018-01-24T09:53:18.999Z,99.90
2018-01-24T09:55:46.468Z,99.90
2018-01-24T09:58:13.929Z,99.90
2018-01-24T10:00:41.430Z,99.90
2018-01-24T10:03:08.882Z,99.90
2018-01-24T10:05:36.353Z,99.90
2018-01-24T10:08:03.801Z,99.90
2018-01-24T10:10:31.288Z,99.90
2018-01-24T10:12:58.748Z,99.90
2018-01-24T10:15:26.298Z,99.90
2018-01-24T10:17:53.781Z,99.90
2018-01-24T10:20:21.267Z,99.90
2018-01-24T10:22:48.716Z,99.90
2018-01-24T10:25:16.944Z,99.90
2018-01-24T10:27:44.408Z,99.90
2018-01-24T10:30:11.885Z,99.90
2018-01-24T10:32:39.348Z,99.90
2018-01-24T10:35:06.802Z,99.90
2018-01-24T10:37:35.074Z,99.90
2018-01-24T10:40:02.533Z,99.90
2018-01-24T10:42:29.989Z,99.90
2018-01-24T10:44:57.437Z,99.90
2018-01-24T10:47:24.903Z,99.90
2018-01-24T10:49:54.177Z,99.90
2018-01-24T10:52:28.764Z,99.90
2018-01-24T10:55:07.265Z,99.90
2018-01-24T12:44:59.899Z,99.90
2018-01-24T12:53:19.581Z,99.90
2018-01-24T12:56:03.083Z,99.90
2018-01-24T12:58:30.952Z,99.90
2018-01-24T13:00:58.515Z,99.90
2018-01-24T13:03:27.379Z,99.90
2018-01-24T13:05:58.585Z,99.90
2018-01-24T13:08:27.566Z,99.90
2018-01-24T13:10:55.957Z,99.90
2018-01-24T13:13:23.566Z,99.90
2018-01-24T13:15:54.873Z,99.90
2018-01-24T13:18:23.816Z,99.90
2018-01-24T13:20:51.560Z,99.90
2018-01-24T13:23:19.290Z,99.90
2018-01-24T13:25:47.776Z,99.90
2018-01-24T13:28:15.234Z,99.90
2018-01-24T13:30:42.716Z,99.90
2018-01-24T13:33:10.195Z,99.90
2018-01-24T13:35:37.762Z,99.90
2018-01-24T13:38:05.357Z,99.90
2018-01-24T13:40:32.818Z,99.90
2018-01-24T13:43:00.283Z,99.90
2018-01-24T13:45:27.735Z,99.90
2018-01-24T13:47:55.284Z,99.90
2018-01-24T13:50:22.766Z,99.90
2018-01-24T13:52:50.258Z,99.90
2018-01-24T13:55:17.789Z,99.90
2018-01-24T13:57:45.305Z,99.90
2018-01-24T14:00:12.788Z,99.90
2018-01-24T14:02:40.257Z,99.90
2018-01-24T14:05:08.506Z,99.90
2018-01-24T14:07:36.014Z,99.90
2018-01-24T14:10:03.538Z,99.90
2018-01-24T14:12:31.006Z,99.90
2018-01-24T14:14:59.281Z,99.90
2018-01-24T14:17:27.547Z,99.90
2018-01-24T14:19:55.019Z,99.90
2018-01-24T14:22:23.377Z,99.90
2018-01-24T14:24:50.962Z,99.90
2018-01-24T14:27:19.190Z,99.90
2018-01-24T14:29:46.707Z,99.90
2018-01-24T14:32:14.177Z,99.90
2018-01-24T14:34:41.664Z,99.90
2018-01-24T14:37:09.167Z,99.90
2018-01-24T14:39:36.669Z,99.90
2018-01-24T14:42:04.133Z,99.90
2018-01-24T14:44:31.605Z,99.90
2018-01-24T14:46:59.059Z,99.90
2018-01-24T14:49:26.546Z,99.90
2018-01-24T14:51:53.992Z,99.90
2018-01-24T14:54:21.453Z,99.90
2018-01-24T14:56:48.919Z,99.90
2018-01-24T14:59:16.384Z,99.90
2018-01-24T15:01:43.830Z,99.90
2018-01-24T15:04:11.291Z,99.90
2018-01-24T15:06:38.831Z,99.90
2018-01-24T15:09:06.307Z,99.90
2018-01-24T15:11:34.588Z,99.90
2018-01-24T15:14:02.035Z,99.90
2018-01-24T15:16:29.496Z,99.90
2018-01-24T15:18:57.715Z,99.90
2018-01-24T15:21:25.176Z,99.90
2018-01-24T15:23:52.643Z,99.90
2018-01-24T15:26:20.128Z,99.90
2018-01-24T15:28:47.592Z,99.90
2018-01-24T15:31:15.053Z,99.90
2018-01-24T15:33:42.509Z,99.90
2018-01-24T15:36:10.089Z,99.90
2018-01-24T15:38:37.575Z,99.90
2018-01-24T15:41:05.053Z,99.90
2018-01-24T15:43:33.013Z,99.90
2018-01-24T15:46:00.560Z,99.90
2018-01-24T15:48:28.027Z,99.90
2018-01-24T15:50:55.497Z,99.90
2018-01-24T15:53:22.973Z,99.90
2018-01-24T15:55:50.437Z,99.90
2018-01-24T15:58:18.681Z,99.90
2018-01-24T16:00:46.170Z,99.90
2018-01-24T16:03:13.642Z,99.90
2018-01-24T16:05:41.981Z,99.90
2018-01-24T16:08:16.235Z,99.90
2018-01-24T16:10:44.862Z,99.90
2018-01-24T16:13:12.883Z,99.90
2018-01-24T16:15:41.329Z,99.90
2018-01-24T16:18:10.465Z,99.90
2018-01-24T16:20:41.574Z,99.90
2018-01-24T16:23:10.836Z,99.90
2018-01-24T16:25:44.163Z,99.90
2018-01-24T16:28:14.623Z,99.90
2018-01-24T16:30:43.683Z,99.90
2018-01-24T16:33:11.875Z,99.90
2018-01-24T16:35:39.345Z,99.90
2018-01-24T16:38:08.234Z,99.90
2018-01-24T16:40:43.546Z,99.90
2018-01-24T16:43:14.736Z,99.90
2018-01-24T16:45:45.044Z,99.90
2018-01-24T16:48:13.398Z,99.90
2018-01-24T16:50:40.879Z,99.90
2018-01-24T16:53:08.329Z,99.90
2018-01-24T16:55:35.789Z,99.90
2018-01-24T16:58:05.014Z,99.90
2018-01-24T17:00:32.549Z,99.90
2018-01-24T17:03:00.072Z,99.90
2018-01-24T17:05:27.533Z,99.90
2018-01-24T17:07:54.992Z,99.90
2018-01-24T17:10:22.477Z,99.90
2018-01-24T17:12:50.138Z,99.90
2018-01-24T17:18:19.032Z,99.90
2018-01-24T17:20:53.876Z,99.90
2018-01-24T17:23:22.473Z,99.90
2018-01-24T17:25:54.738Z,99.90
2018-01-24T18:10:26.353Z,99.90
2018-01-24T18:12:53.885Z,99.90
2018-01-24T18:15:21.392Z,99.90
2018-01-24T18:17:48.861Z,99.90
2018-01-24T18:20:16.353Z,99.90
2018-01-24T18:22:43.840Z,99.90
2018-01-24T18:25:11.303Z,99.90
2018-01-24T18:27:39.563Z,99.90
2018-01-24T18:30:07.177Z,99.90
2018-01-24T18:32:47.474Z,99.90
2018-01-24T18:35:17.914Z,99.90
2018-01-24T18:37:47.302Z,99.90
2018-01-24T18:40:17.349Z,99.90
2018-01-24T18:42:54.930Z,99.90
2018-01-24T18:45:26.611Z,99.90
2018-01-24T18:47:54.408Z,99.90
2018-01-24T18:50:22.045Z,99.90
2018-01-24T18:52:52.272Z,99.90
2018-01-24T18:55:22.583Z,99.90
2018-01-24T18:57:50.614Z,99.90
2018-01-24T19:00:19.683Z,99.90
2018-01-24T19:02:50.912Z,99.90
2018-01-24T19:05:20.017Z,99.90
2018-01-24T19:07:47.723Z,99.90
2018-01-24T19:10:18.257Z,99.90
2018-01-24T19:12:46.868Z,99.90
2018-01-24T19:15:14.736Z,99.90
2018-01-24T19:17:47.397Z,99.90
2018-01-24T19:20:15.066Z,99.90
2018-01-24T19:22:42.731Z,99.90
2018-01-24T19:25:11.803Z,99.90
2018-01-24T19:27:39.727Z,99.90
2018-01-24T19:30:08.222Z,99.90
2018-01-24T19:32:37.339Z,99.90
2018-01-24T19:35:04.888Z,99.90
2018-01-24T19:40:10.813Z,99.90
2018-01-24T19:42:39.972Z,99.90
2018-01-24T19:45:08.324Z,99.90
2018-01-24T19:47:35.922Z,99.90
2018-01-24T19:50:03.834Z,99.90
2018-01-24T19:52:38.665Z,99.90
2018-01-24T19:57:44.648Z,99.90
2018-01-24T20:00:13.410Z,99.90
2018-01-24T20:02:47.550Z,99.90
2018-01-24T20:05:15.021Z,99.90
2018-01-24T20:07:42.498Z,99.90
2018-01-24T20:10:10.199Z,99.90
2018-01-24T20:12:40.110Z,99.90
2018-01-24T20:15:07.864Z,99.90
2018-01-24T20:17:45.707Z,99.90
2018-01-24T20:20:13.578Z,99.90
2018-01-24T20:22:45.518Z,99.90
2018-01-24T20:25:19.153Z,99.90
2018-01-24T20:27:47.715Z,99.90
2018-01-24T20:30:24.787Z,99.90
2018-01-24T20:32:52.389Z,99.90
2018-01-24T20:35:20.147Z,99.80
2018-01-24T20:37:49.810Z,99.90
2018-01-24T20:42:54.190Z,99.90
2018-01-24T20:45:24.400Z,99.90
2018-01-24T20:47:55.761Z,99.90
2018-01-24T20:50:27.450Z,99.90
2018-01-24T20:55:30.849Z,99.90
2018-01-24T20:57:59.560Z,99.80
2018-01-24T21:00:30.461Z,99.70
2018-01-24T21:02:59.315Z,99.60
2018-01-24T21:05:30.585Z,99.30
2018-01-24T21:07:58.394Z,99.00
2018-01-24T21:10:25.932Z,98.90
2018-01-24T21:12:54.200Z,98.80
2018-01-24T21:15:21.717Z,98.70
2018-01-24T21:17:52.452Z,98.60
2018-01-24T21:20:20.467Z,98.40
2018-01-24T21:22:47.950Z,98.40
2018-01-24T21:25:15.668Z,98.20
2018-01-24T21:27:43.822Z,98.20
2018-01-24T21:30:21.790Z,98.00
2018-01-24T21:33:02.569Z,98.10
2018-01-24T21:38:23.476Z,98.00
2018-01-24T21:40:53.894Z,98.40
2018-01-24T21:43:31.881Z,98.20
2018-01-24T21:46:06.473Z,98.20
2018-01-24T21:48:37.236Z,98.20
2018-01-24T21:51:09.805Z,98.10
2018-01-24T21:53:37.566Z,98.20
2018-01-24T21:56:10.500Z,98.10
2018-01-24T21:58:38.307Z,98.10
2018-01-24T22:01:09.648Z,98.20
2018-01-24T22:03:47.171Z,98.20
2018-01-24T22:06:16.993Z,98.10
2018-01-24T22:14:36.669Z,98.70
2018-01-24T22:20:03.141Z,99.90
2018-01-24T22:22:33.432Z,99.90
2018-01-24T22:25:01.397Z,99.90
2018-01-24T22:27:34.866Z,99.90
2018-01-24T22:33:05.278Z,99.90
2018-01-24T22:35:32.898Z,99.90
2018-01-24T22:38:07.978Z,99.90
2018-01-24T22:40:38.248Z,99.90
2018-01-24T22:43:05.917Z,99.90
2018-01-24T22:45:34.203Z,99.90
2018-01-24T22:48:02.129Z,99.90
2018-01-24T22:50:29.886Z,99.90
2018-01-24T22:52:57.443Z,99.90
2018-01-24T22:55:24.983Z,99.90
2018-01-24T22:57:52.594Z,99.90
2018-01-24T23:00:26.150Z,99.90
2018-01-24T23:02:53.723Z,99.90
2018-01-24T23:05:21.236Z,99.90
2018-01-24T23:07:48.749Z,99.90
2018-01-24T23:13:19.604Z,99.90
2018-01-24T23:15:48.428Z,99.90
2018-01-24T23:18:16.439Z,99.90
2018-01-24T23:20:44.119Z,99.90
2018-01-24T23:23:11.672Z,99.90
2018-01-24T23:25:40.057Z,99.90
2018-01-24T23:28:09.813Z,99.90
2018-01-24T23:30:38.212Z,99.90
2018-01-24T23:33:09.115Z,99.90
2018-01-24T23:35:38.311Z,99.90
2018-01-24T23:38:05.951Z,99.90
2018-01-24T23:40:33.644Z,99.90
2018-01-24T23:43:01.290Z,99.90
2018-01-24T23:45:29.898Z,99.90
2018-01-24T23:47:57.668Z,99.90
2018-01-24T23:50:25.420Z,99.90
2018-01-24T23:52:53.011Z,99.90
2018-01-24T23:55:21.878Z,99.90
2018-01-24T23:57:49.537Z,99.90
